Time;durP1;ratioP1;P1;durP2;ratioP2;P2;SDS_P1;SDS_P2;PMS_P1;PMS_P2;Temp;Humidity;BMP_temperature;BMP_pressure;BME280_temperature;BME280_humidity;BME280_pressure;Samples;Min_cycle;Max_cycle;Signal;HPM_P1;HPM_P2
2022/05/17 00:02:24;;;;;;;3.90;0.98;;;13.60;99.90;;;;;;4993718;28;20422;-76
2022/05/17 00:04:51;;;;;;;1.23;0.45;;;13.70;99.90;;;;;;4993868;28;20030;-76
2022/05/17 00:07:19;;;;;;;2.55;0.70;;;13.70;99.90;;;;;;4992408;28;20069;-77
2022/05/17 00:09:47;;;;;;;2.53;0.60;;;13.70;99.90;;;;;;4993524;28;20447;-77
2022/05/17 00:12:15;;;;;;;3.95;0.90;;;13.80;99.90;;;;;;4993559;28;20019;-76
2022/05/17 00:14:42;;;;;;;8.73;0.68;;;13.80;99.90;;;;;;4993613;28;20101;-76
2022/05/17 00:17:10;;;;;;;3.22;0.63;;;13.90;99.90;;;;;;4993706;28;20412;-76
2022/05/17 00:19:38;;;;;;;1.30;0.60;;;13.90;99.90;;;;;;4993426;28;20102;-76
2022/05/17 00:22:07;;;;;;;2.67;0.63;;;14.00;99.90;;;;;;4993447;28;20026;-75
2022/05/17 00:24:35;;;;;;;2.67;0.85;;;14.10;99.90;;;;;;4997004;28;20018;-76
2022/05/17 00:27:04;;;;;;;1.40;0.70;;;14.10;99.90;;;;;;4997036;28;20038;-76
2022/05/17 00:29:32;;;;;;;6.20;0.75;;;14.20;99.90;;;;;;4996826;28;20035;-76
2022/05/17 00:32:00;;;;;;;3.25;0.80;;;14.20;99.90;;;;;;4996818;28;20081;-76
2022/05/17 00:34:28;;;;;;;1.38;0.63;;;14.30;99.90;;;;;;4996876;28;20053;-76
2022/05/17 00:36:56;;;;;;;6.65;1.20;;;14.40;99.90;;;;;;4997001;28;20022;-76
2022/05/17 00:39:23;;;;;;;1.88;0.70;;;14.40;99.90;;;;;;4996817;28;20372;-76
2022/05/17 00:41:51;;;;;;;1.48;0.45;;;14.50;99.90;;;;;;4996797;28;20026;-76
2022/05/17 00:47:25;;;;;;;5.95;0.88;;;14.50;99.90;;;;;;4997219;28;20493;-77
2022/05/17 00:50:06;;;;;;;4.47;0.50;;;14.50;99.90;;;;;;4996322;28;20491;-76
2022/05/17 00:52:54;;;;;;;6.32;0.80;;;14.50;99.90;;;;;;4996496;28;20039;-76
2022/05/17 00:55:28;;;;;;;2.15;0.40;;;14.60;99.90;;;;;;4997049;28;20030;-76
2022/05/17 00:58:16;;;;;;;1.92;0.55;;;14.60;99.90;;;;;;4996558;28;20054;-75
2022/05/17 01:01:11;;;;;;;5.72;1.05;;;14.60;99.90;;;;;;4996507;28;20110;-76
2022/05/17 01:03:53;;;;;;;6.05;0.77;;;14.70;99.90;;;;;;4996434;28;20022;-76
2022/05/17 01:06:23;;;;;;;1.58;0.45;;;14.80;99.90;;;;;;4996460;28;20030;-76
2022/05/17 01:08:50;;;;;;;5.95;0.57;;;14.80;99.90;;;;;;4996272;28;20073;-76
2022/05/17 01:11:18;;;;;;;3.25;0.85;;;14.90;99.90;;;;;;4996400;28;20019;-76
2022/05/17 01:16:32;;;;;;;2.58;0.82;;;14.90;99.90;;;;;;4996568;28;20444;-76
2022/05/17 01:19:00;;;;;;;4.63;0.90;;;15.00;99.90;;;;;;4996165;28;20439;-75
2022/05/17 01:21:27;;;;;;;1.95;0.98;;;15.00;99.90;;;;;;4995901;28;20080;-75
2022/05/17 01:23:55;;;;;;;1.88;0.85;;;15.10;99.90;;;;;;4996062;28;20041;-75
2022/05/17 01:26:26;;;;;;;2.60;0.75;;;15.10;99.90;;;;;;4995914;28;20102;-76
2022/05/17 01:28:54;;;;;;;2.03;0.80;;;15.10;99.90;;;;;;4995711;28;20030;-76
2022/05/17 01:31:23;;;;;;;3.92;0.55;;;15.10;99.90;;;;;;4995895;28;20042;-75
2022/05/17 01:33:50;;;;;;;2.03;1.08;;;15.10;99.90;;;;;;4995354;28;20373;-76
2022/05/17 01:36:22;;;;;;;6.35;0.65;;;15.20;99.90;;;;;;4995547;28;20018;-76
2022/05/17 01:38:51;;;;;;;3.28;0.85;;;15.20;99.90;;;;;;4995962;28;20034;-76
2022/05/17 01:41:21;;;;;;;2.17;0.77;;;15.30;99.90;;;;;;4995749;28;20026;-77
2022/05/17 01:43:53;;;;;;;2.78;0.60;;;15.30;99.90;;;;;;4995716;28;20537;-76
2022/05/17 01:46:21;;;;;;;3.53;0.45;;;15.30;99.90;;;;;;4995830;28;20104;-76
2022/05/17 01:48:50;;;;;;;2.22;0.68;;;15.30;99.90;;;;;;4995506;28;20463;-76
2022/05/17 01:51:18;;;;;;;3.13;0.82;;;15.40;99.90;;;;;;4995277;28;20077;-76
2022/05/17 01:53:46;;;;;;;1.95;0.60;;;15.40;99.90;;;;;;4995486;28;20109;-76
2022/05/17 01:56:14;;;;;;;2.22;0.68;;;15.40;99.90;;;;;;4995319;28;20073;-76
2022/05/17 01:58:42;;;;;;;2.38;0.50;;;15.50;99.90;;;;;;4995514;28;20033;-76
2022/05/17 02:01:11;;;;;;;4.43;0.55;;;15.50;99.90;;;;;;4995254;28;20053;-76
2022/05/17 02:03:39;;;;;;;7.47;0.95;;;15.50;99.90;;;;;;4995164;28;20019;-76
2022/05/17 02:06:06;;;;;;;2.13;0.40;;;15.50;99.90;;;;;;4995175;28;20096;-77
2022/05/17 02:08:34;;;;;;;4.32;0.40;;;15.50;99.90;;;;;;4995097;28;20023;-76
2022/05/17 02:11:03;;;;;;;1.65;0.75;;;15.60;99.90;;;;;;4995041;28;20534;-76
2022/05/17 02:13:31;;;;;;;2.05;0.70;;;15.70;99.90;;;;;;4994991;28;20033;-76
2022/05/17 02:15:59;;;;;;;2.63;0.45;;;15.60;99.90;;;;;;4995292;28;20023;-76
2022/05/17 02:18:27;;;;;;;4.40;0.63;;;15.70;99.90;;;;;;4994862;28;20026;-76
2022/05/17 02:20:55;;;;;;;0.77;0.60;;;15.70;99.90;;;;;;4994882;28;20109;-76
2022/05/17 02:23:22;;;;;;;1.67;0.68;;;15.80;99.90;;;;;;4994903;28;20022;-76
2022/05/17 02:25:50;;;;;;;4.18;0.93;;;15.80;99.90;;;;;;4994894;28;20471;-76
2022/05/17 02:28:18;;;;;;;1.05;0.38;;;15.80;99.90;;;;;;4994904;28;20030;-75
2022/05/17 02:30:46;;;;;;;3.65;0.40;;;15.80;99.90;;;;;;4994677;28;20034;-76
2022/05/17 02:33:14;;;;;;;3.67;0.60;;;15.90;99.90;;;;;;4994765;28;20046;-76
2022/05/17 02:35:42;;;;;;;2.25;0.50;;;15.90;99.90;;;;;;4994819;28;20109;-75
2022/05/17 02:38:11;;;;;;;3.20;0.65;;;15.90;99.90;;;;;;4994652;28;20480;-76
2022/05/17 02:40:39;;;;;;;1.38;0.50;;;16.00;99.90;;;;;;4994797;28;20022;-76
2022/05/17 02:43:07;;;;;;;1.27;0.45;;;16.00;99.90;;;;;;4994752;28;20054;-76
2022/05/17 02:45:34;;;;;;;5.18;0.98;;;16.00;99.90;;;;;;4994141;28;20029;-76
2022/05/17 02:48:02;;;;;;;4.85;1.15;;;16.00;99.90;;;;;;4994637;28;20080;-75
2022/05/17 02:50:32;;;;;;;3.53;0.45;;;16.10;99.90;;;;;;4994152;28;20048;-76
2022/05/17 02:52:59;;;;;;;0.98;0.50;;;16.10;99.90;;;;;;4994629;28;20073;-76
2022/05/17 02:55:27;;;;;;;4.78;0.63;;;16.10;99.90;;;;;;4994527;28;20057;-76
2022/05/17 02:57:55;;;;;;;1.48;0.50;;;16.10;99.90;;;;;;4994426;28;20030;-76
2022/05/17 03:00:24;;;;;;;2.42;0.80;;;16.20;99.90;;;;;;4994316;28;20026;-76
2022/05/17 03:02:52;;;;;;;1.90;0.52;;;16.20;99.90;;;;;;4994201;28;20023;-76
2022/05/17 03:05:24;;;;;;;2.70;0.60;;;16.30;99.90;;;;;;4994361;28;20029;-75
2022/05/17 03:07:52;;;;;;;1.20;0.30;;;16.40;99.90;;;;;;4993098;28;20391;-76
2022/05/17 03:10:21;;;;;;;1.48;0.30;;;16.40;99.90;;;;;;4993896;28;20034;-76
2022/05/17 03:12:49;;;;;;;2.88;0.45;;;16.50;99.90;;;;;;4994182;28;20029;-76
2022/05/17 03:15:21;;;;;;;1.55;0.68;;;16.50;99.90;;;;;;4994127;28;20112;-76
2022/05/17 03:17:49;;;;;;;1.25;0.50;;;16.50;99.90;;;;;;4994240;28;20030;-76
2022/05/17 03:20:17;;;;;;;2.92;0.60;;;16.40;99.90;;;;;;4993887;28;20034;-76
2022/05/17 03:22:45;;;;;;;3.72;0.38;;;16.40;99.90;;;;;;4994252;28;20018;-76
2022/05/17 03:25:13;;;;;;;0.73;0.40;;;16.40;99.90;;;;;;4994078;28;20054;-76
2022/05/17 03:27:40;;;;;;;6.95;1.25;;;16.50;99.90;;;;;;4993943;28;20022;-75
2022/05/17 03:30:09;;;;;;;1.77;0.52;;;16.50;99.90;;;;;;4993856;28;20034;-75
2022/05/17 03:32:36;;;;;;;3.97;0.50;;;16.50;99.90;;;;;;4994094;28;20442;-76
2022/05/17 03:35:05;;;;;;;2.33;0.70;;;16.60;99.90;;;;;;4994069;28;20526;-75
2022/05/17 03:37:32;;;;;;;2.08;0.30;;;16.60;99.90;;;;;;4993902;28;20027;-75
2022/05/17 03:40:00;;;;;;;1.75;0.82;;;16.70;99.90;;;;;;4993764;28;20054;-75
2022/05/17 03:42:28;;;;;;;2.92;0.60;;;16.60;99.90;;;;;;4993879;28;20065;-76
2022/05/17 03:44:55;;;;;;;3.67;0.90;;;16.60;99.90;;;;;;4992636;28;20431;-75
2022/05/17 03:47:23;;;;;;;2.72;0.65;;;16.60;99.90;;;;;;4993799;28;20053;-76
2022/05/17 03:49:51;;;;;;;3.17;0.73;;;16.60;99.90;;;;;;4993485;28;20086;-75
2022/05/17 03:52:19;;;;;;;3.97;0.60;;;16.60;99.90;;;;;;4993857;28;20105;-74
2022/05/17 03:54:46;;;;;;;0.82;0.40;;;16.50;99.90;;;;;;4992378;28;20109;-75
2022/05/17 03:57:14;;;;;;;1.88;0.40;;;16.60;99.90;;;;;;4993876;28;20525;-76
2022/05/17 03:59:42;;;;;;;1.45;0.30;;;16.60;99.90;;;;;;4997648;28;20152;-76
2022/05/17 04:02:09;;;;;;;2.13;0.68;;;16.60;99.90;;;;;;4997635;28;20483;-75
2022/05/17 04:04:37;;;;;;;2.13;0.60;;;16.70;99.90;;;;;;4997549;28;20384;-76
2022/05/17 04:07:05;;;;;;;1.08;0.47;;;16.80;99.90;;;;;;4997551;28;20130;-75
2022/05/17 04:09:33;;;;;;;1.05;0.30;;;16.70;99.90;;;;;;4997056;28;20407;-75
2022/05/17 04:12:00;;;;;;;1.90;0.38;;;16.80;99.90;;;;;;4997247;28;20088;-76
2022/05/17 04:14:28;;;;;;;1.88;0.47;;;16.70;99.90;;;;;;4997502;28;20022;-75
2022/05/17 04:16:56;;;;;;;0.82;0.52;;;16.70;99.90;;;;;;4997239;28;20030;-75
2022/05/17 04:19:24;;;;;;;1.50;0.60;;;16.70;99.90;;;;;;4997169;28;20023;-75
2022/05/17 04:21:51;;;;;;;0.82;0.50;;;16.70;99.90;;;;;;4997299;28;20041;-75
2022/05/17 04:24:19;;;;;;;3.47;0.60;;;16.60;99.90;;;;;;4997173;28;20033;-76
2022/05/17 04:26:47;;;;;;;6.50;0.93;;;16.60;99.90;;;;;;4997188;28;20034;-75
2022/05/17 04:29:15;;;;;;;1.45;0.57;;;16.60;99.90;;;;;;4996944;28;20040;-75
2022/05/17 04:31:43;;;;;;;1.33;0.20;;;16.60;99.90;;;;;;4997146;28;20105;-75
2022/05/17 04:34:11;;;;;;;1.23;0.35;;;16.60;99.90;;;;;;4997052;28;20558;-76
2022/05/17 04:36:39;;;;;;;0.57;0.25;;;16.60;99.90;;;;;;4996969;28;20031;-76
2022/05/17 04:39:06;;;;;;;1.60;0.45;;;16.60;99.90;;;;;;4997117;28;20058;-76
2022/05/17 04:41:34;;;;;;;0.77;0.30;;;16.60;99.90;;;;;;4996764;28;20049;-76
2022/05/17 04:44:02;;;;;;;0.65;0.20;;;16.60;99.90;;;;;;4996975;28;20044;-75
2022/05/17 04:46:30;;;;;;;1.13;0.50;;;16.60;99.90;;;;;;4996722;28;20026;-75
2022/05/17 04:48:58;;;;;;;2.72;0.40;;;16.60;99.90;;;;;;4995484;28;20054;-75
2022/05/17 04:51:27;;;;;;;2.05;0.55;;;16.60;99.90;;;;;;4996763;28;20078;-76
2022/05/17 04:53:54;;;;;;;1.90;0.43;;;16.60;99.90;;;;;;4996963;28;20042;-76
2022/05/17 04:56:24;;;;;;;1.30;0.40;;;16.60;99.90;;;;;;4996775;28;20442;-75
2022/05/17 04:58:52;;;;;;;0.82;0.30;;;16.60;99.90;;;;;;4996559;28;20099;-76
2022/05/17 05:01:21;;;;;;;1.38;0.75;;;16.60;99.90;;;;;;4996449;28;20029;-76
2022/05/17 05:03:49;;;;;;;1.77;0.40;;;16.60;99.90;;;;;;4996741;28;20026;-76
2022/05/17 05:06:17;;;;;;;3.10;0.77;;;16.60;99.90;;;;;;4996623;28;20106;-76
2022/05/17 05:08:44;;;;;;;1.40;0.40;;;16.60;99.90;;;;;;4996335;28;20030;-76
2022/05/17 05:11:13;;;;;;;1.45;0.60;;;16.60;99.90;;;;;;4996373;28;20038;-74
2022/05/17 05:13:41;;;;;;;1.02;0.68;;;16.70;99.90;;;;;;4996212;28;20030;-75
2022/05/17 05:16:14;;;;;;;2.30;0.40;;;16.70;99.90;;;;;;4996207;28;20118;-76
2022/05/17 05:18:42;;;;;;;1.27;0.47;;;16.70;99.90;;;;;;4996005;28;20497;-75
2022/05/17 05:21:13;;;;;;;1.35;0.52;;;16.60;99.90;;;;;;4994892;28;20036;-76
2022/05/17 05:23:43;;;;;;;3.63;0.73;;;16.60;99.90;;;;;;4996051;28;20023;-76
2022/05/17 05:26:12;;;;;;;1.98;0.38;;;16.60;99.90;;;;;;4995995;28;20038;-76
2022/05/17 05:28:42;;;;;;;1.70;0.45;;;16.60;99.90;;;;;;4996002;28;20015;-75
2022/05/17 05:31:12;;;;;;;2.20;0.63;;;16.60;99.90;;;;;;4995733;28;20041;-76
2022/05/17 05:33:41;;;;;;;1.48;0.50;;;16.60;99.90;;;;;;4995823;28;20475;-76
2022/05/17 05:36:10;;;;;;;1.10;0.50;;;16.60;99.90;;;;;;4995940;28;20499;-75
2022/05/17 05:38:37;;;;;;;1.65;0.40;;;16.60;99.90;;;;;;4995812;28;20026;-75
2022/05/17 05:41:05;;;;;;;2.65;0.70;;;16.60;99.90;;;;;;4995655;28;20030;-75
2022/05/17 05:43:33;;;;;;;0.80;0.40;;;16.50;99.90;;;;;;4995594;28;20034;-75
2022/05/17 05:46:00;;;;;;;1.52;0.45;;;16.60;99.90;;;;;;4995838;28;20026;-75
2022/05/17 05:48:28;;;;;;;1.65;0.50;;;16.60;99.90;;;;;;4995645;28;20117;-76
2022/05/17 05:50:56;;;;;;;1.13;0.40;;;16.60;99.90;;;;;;4995216;28;20050;-76
2022/05/17 05:53:23;;;;;;;1.50;0.70;;;16.60;99.90;;;;;;4995555;28;20033;-75
2022/05/17 05:56:01;;;;;;;1.65;0.50;;;16.50;99.90;;;;;;4995525;28;20109;-75
2022/05/17 05:58:30;;;;;;;1.85;0.73;;;16.50;99.90;;;;;;4995446;28;20109;-76
2022/05/17 06:00:59;;;;;;;4.40;0.45;;;16.50;99.90;;;;;;4995539;28;20023;-75
2022/05/17 06:03:27;;;;;;;0.68;0.32;;;16.40;99.90;;;;;;4995255;28;20471;-76
2022/05/17 06:05:56;;;;;;;3.45;0.57;;;16.40;99.90;;;;;;4995340;28;20073;-75
2022/05/17 06:08:24;;;;;;;1.20;0.50;;;16.30;99.90;;;;;;4995184;28;20533;-75
2022/05/17 06:10:51;;;;;;;1.45;0.40;;;16.30;99.90;;;;;;4994841;28;20567;-76
2022/05/17 06:13:19;;;;;;;1.88;0.65;;;16.30;99.90;;;;;;4995221;28;20046;-76
2022/05/17 06:15:47;;;;;;;4.18;0.60;;;16.30;99.90;;;;;;4995001;28;20042;-75
2022/05/17 06:18:15;;;;;;;2.97;0.80;;;16.30;99.90;;;;;;4995139;28;20103;-75
2022/05/17 06:20:48;;;;;;;2.08;0.80;;;16.30;99.90;;;;;;4993183;28;20447;-75
2022/05/17 06:23:15;;;;;;;3.90;1.25;;;16.30;99.90;;;;;;4995047;28;20034;-75
2022/05/17 06:25:43;;;;;;;3.08;1.05;;;16.30;99.90;;;;;;4995017;28;20073;-75
2022/05/17 06:28:12;;;;;;;1.77;0.95;;;16.20;99.90;;;;;;4995054;28;20023;-75
2022/05/17 06:30:42;;;;;;;1.95;0.75;;;16.10;99.90;;;;;;4994688;28;20549;-76
2022/05/17 06:33:12;;;;;;;8.48;1.30;;;16.10;99.90;;;;;;4994632;28;20041;-76
2022/05/17 06:35:41;;;;;;;7.75;1.33;;;16.10;99.90;;;;;;4994748;28;20026;-75
2022/05/17 06:38:10;;;;;;;4.63;1.00;;;16.10;99.90;;;;;;4994466;28;20041;-75
2022/05/17 06:40:38;;;;;;;4.07;1.25;;;16.00;99.90;;;;;;4994764;28;20022;-74
2022/05/17 06:43:05;;;;;;;2.30;0.73;;;16.00;99.90;;;;;;4994540;28;20033;-75
2022/05/17 06:45:34;;;;;;;3.83;0.73;;;15.90;99.90;;;;;;4994610;28;20019;-75
2022/05/17 06:48:02;;;;;;;5.32;0.60;;;15.90;99.90;;;;;;4994680;28;20037;-76
2022/05/17 06:50:31;;;;;;;6.47;0.90;;;15.80;99.90;;;;;;4994087;28;20587;-75
2022/05/17 06:52:59;;;;;;;2.13;0.65;;;15.80;99.90;;;;;;4994624;28;20026;-75
2022/05/17 06:55:27;;;;;;;0.90;0.50;;;15.80;99.90;;;;;;4994508;28;20026;-76
2022/05/17 06:57:54;;;;;;;1.40;0.57;;;15.70;99.90;;;;;;4994285;28;20033;-75
2022/05/17 07:00:23;;;;;;;0.60;0.35;;;15.60;99.90;;;;;;4994258;28;20109;-75
2022/05/17 07:02:50;;;;;;;1.58;0.45;;;15.60;99.90;;;;;;4994352;28;20386;-75
2022/05/17 07:05:18;;;;;;;1.50;0.57;;;15.50;99.90;;;;;;4994294;28;20114;-74
2022/05/17 07:07:46;;;;;;;3.55;0.68;;;15.50;99.90;;;;;;4994174;28;20018;-75
2022/05/17 07:13:09;;;;;;;3.17;0.95;;;15.40;99.90;;;;;;4994420;28;20033;-74
2022/05/17 07:15:39;;;;;;;1.45;0.50;;;15.40;99.90;;;;;;4994292;28;20038;-75
2022/05/17 07:18:09;;;;;;;1.90;0.50;;;15.30;99.90;;;;;;4994281;28;20046;-75
2022/05/17 07:20:37;;;;;;;2.15;0.50;;;15.20;99.90;;;;;;4994032;28;20104;-75
2022/05/17 07:23:05;;;;;;;4.57;0.70;;;15.10;99.90;;;;;;4994100;28;20460;-75
2022/05/17 07:25:34;;;;;;;1.50;0.55;;;15.00;99.90;;;;;;4994055;28;20383;-75
2022/05/17 07:28:02;;;;;;;1.35;0.57;;;15.00;99.90;;;;;;4994156;28;20380;-74
2022/05/17 07:30:30;;;;;;;2.65;0.82;;;15.00;99.90;;;;;;4993751;28;20040;-75
2022/05/17 07:32:58;;;;;;;2.35;0.50;;;14.90;99.90;;;;;;4995159;28;20365;-75
2022/05/17 07:35:25;;;;;;;3.15;0.65;;;14.90;99.90;;;;;;4998074;28;20472;-75
2022/05/17 07:37:53;;;;;;;3.17;0.40;;;14.90;99.90;;;;;;4998068;28;20029;-75
2022/05/17 07:40:21;;;;;;;2.03;0.60;;;14.80;99.90;;;;;;4997866;28;20479;-74
2022/05/17 07:42:50;;;;;;;2.13;0.50;;;14.80;99.90;;;;;;4997960;28;20030;-75
2022/05/17 07:45:18;;;;;;;1.67;0.80;;;14.80;99.90;;;;;;4997929;28;20033;-75
2022/05/17 07:47:46;;;;;;;5.45;0.93;;;14.70;99.90;;;;;;4997863;28;20516;-75
2022/05/17 07:50:14;;;;;;;5.15;0.68;;;14.70;99.90;;;;;;4997392;28;20149;-74
2022/05/17 07:52:42;;;;;;;4.03;1.02;;;14.60;99.90;;;;;;4997830;28;20018;-73
2022/05/17 07:55:11;;;;;;;4.38;0.80;;;14.70;99.90;;;;;;4997647;28;20031;-74
2022/05/17 07:57:39;;;;;;;4.95;0.85;;;14.60;99.90;;;;;;4997679;28;20481;-75
2022/05/17 08:00:08;;;;;;;1.13;0.85;;;14.50;99.90;;;;;;4997577;28;20118;-75
2022/05/17 08:02:36;;;;;;;4.82;1.02;;;14.50;99.90;;;;;;4997618;28;20026;-74
2022/05/17 08:05:05;;;;;;;3.55;0.90;;;14.40;99.90;;;;;;4997459;28;20054;-76
2022/05/17 08:07:32;;;;;;;2.28;0.70;;;14.40;99.90;;;;;;4997515;28;20058;-76
2022/05/17 08:10:00;;;;;;;2.33;0.80;;;14.30;99.90;;;;;;4997059;28;20114;-76
2022/05/17 08:12:28;;;;;;;2.88;0.80;;;14.30;99.90;;;;;;4997498;28;20463;-75
2022/05/17 08:14:55;;;;;;;1.98;0.90;;;14.30;99.90;;;;;;4997308;28;20034;-74
2022/05/17 08:17:23;;;;;;;3.85;1.05;;;14.30;99.90;;;;;;4997372;28;20490;-76
2022/05/17 08:19:51;;;;;;;4.22;1.15;;;14.30;99.90;;;;;;4997362;28;20602;-75
2022/05/17 08:22:19;;;;;;;8.20;1.05;;;14.30;99.90;;;;;;4997111;28;20026;-75
2022/05/17 08:27:32;;;;;;;1.23;0.98;;;14.30;99.90;;;;;;4997722;28;20033;-74
2022/05/17 08:30:05;;;;;;;4.50;1.23;;;14.40;99.90;;;;;;4996762;28;20125;-75
2022/05/17 08:35:39;;;;;;;5.50;2.60;;;14.30;99.90;;;;;;4997346;28;20541;-75
2022/05/17 08:38:08;;;;;;;3.25;2.17;;;14.30;99.90;;;;;;4997098;28;20030;-75
2022/05/17 08:40:54;;;;;;;3.22;1.65;;;14.30;99.90;;;;;;4996815;28;20392;-76
2022/05/17 08:43:44;;;;;;;3.05;1.58;;;14.40;99.90;;;;;;4996714;28;20026;-75
2022/05/17 08:46:43;;;;;;;3.30;1.00;;;14.50;99.90;;;;;;4997338;28;20022;-75
2022/05/17 08:49:31;;;;;;;3.28;1.55;;;14.40;99.90;;;;;;4996478;28;20030;-75
2022/05/17 08:52:10;;;;;;;2.03;1.33;;;14.30;99.90;;;;;;4996603;28;20535;-74
2022/05/17 08:54:55;;;;;;;2.75;1.85;;;14.30;99.90;;;;;;4988334;28;20106;-75
2022/05/17 08:57:41;;;;;;;4.10;1.15;;;14.20;99.90;;;;;;4978592;28;20019;-75
2022/05/17 09:00:46;;;;;;;2.28;1.35;;;14.10;99.90;;;;;;4981835;28;20038;-76
2022/05/17 09:03:19;;;;;;;1.63;0.95;;;14.00;99.90;;;;;;4975817;28;20026;-76
2022/05/17 09:05:50;;;;;;;3.20;1.85;;;13.90;99.90;;;;;;4996328;28;20486;-76
2022/05/17 09:08:53;;;;;;;4.32;1.48;;;13.80;99.90;;;;;;4995661;28;20423;-73
2022/05/17 09:11:24;;;;;;;2.53;1.70;;;13.80;99.90;;;;;;4984099;28;20031;-75
2022/05/17 09:14:06;;;;;;;4.03;1.45;;;13.70;99.90;;;;;;4975255;28;20608;-76
2022/05/17 09:16:39;;;;;;;3.28;1.30;;;13.70;99.90;;;;;;4976351;28;20557;-75
2022/05/17 09:19:08;;;;;;;3.10;1.40;;;13.70;99.90;;;;;;4973987;28;20029;-75
2022/05/17 09:21:41;;;;;;;3.80;1.15;;;13.70;99.90;;;;;;4974901;28;20034;-76
2022/05/17 09:24:13;;;;;;;2.33;1.33;;;13.70;99.90;;;;;;4975048;28;20019;-75
2022/05/17 09:26:52;;;;;;;4.90;1.58;;;13.70;99.90;;;;;;4974838;28;20025;-75
2022/05/17 09:29:27;;;;;;;5.80;1.30;;;13.70;99.90;;;;;;4974182;28;20464;-75
2022/05/17 09:32:06;;;;;;;4.65;1.02;;;13.70;99.90;;;;;;4979314;28;20034;-75
2022/05/17 09:34:43;;;;;;;2.15;1.10;;;13.60;99.90;;;;;;4983041;28;20023;-75
2022/05/17 09:37:20;;;;;;;2.33;0.93;;;13.60;99.90;;;;;;4983900;28;20027;-75
2022/05/17 09:39:53;;;;;;;2.22;0.90;;;13.60;99.90;;;;;;4982465;28;20387;-75
2022/05/17 09:42:32;;;;;;;3.08;1.17;;;13.60;99.90;;;;;;4979591;28;20033;-75
2022/05/17 09:45:07;;;;;;;2.83;0.95;;;13.60;99.90;;;;;;4974538;28;20099;-75
2022/05/17 09:47:55;;;;;;;8.52;1.45;;;13.70;99.90;;;;;;4974426;28;20023;-75
2022/05/17 09:53:18;;;;;;;3.22;1.33;;;13.60;99.90;;;;;;4976631;28;20503;-75
2022/05/17 09:55:56;;;;;;;1.42;0.90;;;13.60;99.90;;;;;;4975168;28;20085;-75
2022/05/17 09:58:42;;;;;;;3.47;1.00;;;13.50;99.90;;;;;;4976147;28;20023;-75
2022/05/17 10:01:28;;;;;;;2.15;1.15;;;13.40;99.90;;;;;;4975940;28;20408;-75
2022/05/17 10:04:33;;;;;;;9.10;2.28;;;13.40;99.90;;;;;;4976037;28;20019;-75
2022/05/17 10:07:20;;;;;;;7.88;1.77;;;13.30;99.90;;;;;;4965575;28;20035;-75
2022/05/17 10:09:58;;;;;;;2.67;1.85;;;13.20;99.90;;;;;;4975535;28;20088;-75
2022/05/17 10:12:42;;;;;;;4.65;1.67;;;13.10;99.90;;;;;;4975792;28;20031;-75
2022/05/17 10:15:19;;;;;;;14.45;1.38;;;13.00;99.90;;;;;;4976224;28;20126;-76
2022/05/17 10:18:21;;;;;;;4.70;1.52;;;12.90;99.90;;;;;;4975641;28;20034;-75
2022/05/17 10:20:56;;;;;;;2.80;1.70;;;12.80;99.90;;;;;;4975565;28;20034;-74
2022/05/17 10:24:00;;;;;;;2.67;1.27;;;12.80;99.90;;;;;;4988636;28;20037;-75
2022/05/17 10:26:43;;;;;;;3.50;1.27;;;12.70;99.90;;;;;;4989667;28;20036;-76
2022/05/17 10:29:52;;;;;;;3.53;1.27;;;12.70;99.90;;;;;;4976623;28;20479;-75
2022/05/17 10:33:00;;;;;;;3.58;1.30;;;12.70;99.90;;;;;;4983368;28;20046;-75
2022/05/17 10:36:09;;;;;;;1.45;0.90;;;12.70;99.90;;;;;;4957278;28;20119;-75
2022/05/17 10:39:07;;;;;;;1.48;1.00;;;12.60;99.90;;;;;;4937686;28;20253;-76
2022/05/17 10:41:41;;;;;;;3.97;1.30;;;12.60;99.90;;;;;;4992635;28;20031;-76
2022/05/17 10:44:38;;;;;;;2.92;1.20;;;12.60;99.90;;;;;;4993009;28;20018;-74
2022/05/17 10:47:32;;;;;;;2.00;1.05;;;12.50;99.90;;;;;;4980939;28;20042;-73
2022/05/17 10:50:40;;;;;;;4.40;1.20;;;12.50;99.90;;;;;;4977036;28;20066;-72
2022/05/17 10:53:46;;;;;;;3.80;1.00;;;12.50;99.90;;;;;;4981094;28;20026;-74
2022/05/17 10:56:40;;;;;;;2.22;1.00;;;12.60;99.90;;;;;;4932338;29;20039;-75
2022/05/17 10:59:13;;;;;;;5.63;1.23;;;12.50;99.90;;;;;;4932917;29;20122;-73
2022/05/17 11:01:50;;;;;;;2.15;1.10;;;12.50;99.90;;;;;;4963545;28;20091;-74
2022/05/17 11:04:36;;;;;;;3.70;1.00;;;12.50;99.90;;;;;;4985746;28;20077;-73
2022/05/17 11:07:09;;;;;;;;;;;12.50;99.90;;;;;;4985799;28;20030;-74
2022/05/17 11:09:55;;;;;;;3.67;1.10;;;12.50;99.90;;;;;;4984851;28;19922;-74
2022/05/17 11:12:26;;;;;;;3.70;1.35;;;12.40;99.90;;;;;;4986364;28;20057;-74
2022/05/17 11:15:11;;;;;;;2.42;1.10;;;12.40;99.90;;;;;;4989041;28;20513;-74
2022/05/17 11:17:55;;;;;;;6.22;1.13;;;12.30;99.90;;;;;;4983192;28;20475;-75
2022/05/17 11:20:28;;;;;;;3.83;1.10;;;12.30;99.90;;;;;;4983448;28;20026;-74
2022/05/17 11:23:08;;;;;;;2.50;1.15;;;12.30;99.90;;;;;;4980254;28;20022;-74
2022/05/17 11:26:05;;;;;;;2.17;1.05;;;12.20;99.90;;;;;;4990676;28;20534;-75
2022/05/17 11:29:02;;;;;;;3.70;1.20;;;12.20;99.90;;;;;;4993238;28;20097;-74
2022/05/17 11:31:55;;;;;;;4.72;1.40;;;12.20;99.90;;;;;;4993775;28;20121;-74
2022/05/17 11:34:36;;;;;;;3.83;1.33;;;12.10;99.90;;;;;;4982559;28;20085;-74
2022/05/17 11:37:28;;;;;;;6.78;1.80;;;12.10;99.90;;;;;;4991883;28;20027;-75
2022/05/17 11:39:56;;;;;;;2.88;1.23;;;12.00;99.90;;;;;;4992937;28;20026;-75
2022/05/17 11:42:27;;;;;;;4.60;1.50;;;12.00;99.90;;;;;;4991822;28;20031;-74
2022/05/17 11:44:56;;;;;;;3.25;1.35;;;11.90;99.90;;;;;;4993110;28;20022;-74
2022/05/17 11:47:31;;;;;;;2.38;1.10;;;11.90;99.90;;;;;;4992118;28;20026;-74
2022/05/17 11:50:20;;;;;;;;;;;11.80;99.90;;;;;;4992972;28;20487;-75
2022/05/17 11:53:15;;;;;;;4.25;1.60;;;11.80;99.90;;;;;;4993132;28;19913;-74
2022/05/17 11:56:22;;;;;;;3.65;1.65;;;11.70;99.90;;;;;;4992919;28;20382;-72
2022/05/17 11:58:50;;;;;;;;;;;11.70;99.90;;;;;;4984429;28;20026;-75
2022/05/17 12:01:30;;;;;;;1.90;1.30;;;11.70;99.90;;;;;;4993037;28;19905;-74
2022/05/17 12:04:09;;;;;;;2.97;1.70;;;11.60;99.90;;;;;;4991648;28;20094;-72
2022/05/17 12:06:54;;;;;;;3.70;1.50;;;11.60;99.90;;;;;;4987402;28;20027;-74
2022/05/17 12:09:30;;;;;;;4.72;1.55;;;11.60;99.90;;;;;;4973140;28;20094;-71
2022/05/17 12:12:24;;;;;;;4.50;1.63;;;11.60;99.90;;;;;;4973267;28;20031;-72
2022/05/17 12:15:18;;;;;;;2.47;1.52;;;11.60;99.90;;;;;;4973299;28;20031;-74
2022/05/17 12:17:49;;;;;;;3.65;1.80;;;11.60;99.90;;;;;;4975470;28;20442;-74
2022/05/17 12:20:20;;;;;;;4.28;1.50;;;11.60;99.90;;;;;;4995785;28;20022;-74
2022/05/17 12:22:54;;;;;;;3.63;1.63;;;11.50;99.90;;;;;;4996656;28;20379;-75
2022/05/17 12:25:25;;;;;;;7.60;3.28;;;11.50;99.90;;;;;;4996550;28;20019;-74
2022/05/17 12:27:54;;;;;;;7.53;4.18;;;11.50;99.90;;;;;;4996500;28;20057;-74
2022/05/17 12:33:22;;;;;;;7.78;3.53;;;11.50;99.90;;;;;;4996652;28;20028;-74
2022/05/17 12:35:49;;;;;;;;;;;11.40;99.90;;;;;;4996833;28;20042;-74
2022/05/17 12:44:15;;;;;;;12.73;5.38;;;11.40;99.90;;;;;;4996553;28;20042;-74
2022/05/17 12:46:45;;;;;;;4.85;2.22;;;11.30;99.90;;;;;;4996145;28;20114;-74
2022/05/17 12:49:19;;;;;;;6.15;2.08;;;11.30;99.90;;;;;;4996149;28;20065;-74
2022/05/17 12:51:59;;;;;;;3.70;1.23;;;11.20;99.90;;;;;;4995847;28;20049;-74
2022/05/17 12:54:35;;;;;;;6.57;1.58;;;11.20;99.90;;;;;;4996952;28;20033;-74
2022/05/17 12:57:21;;;;;;;3.15;1.90;;;11.20;99.90;;;;;;4993820;28;20033;-74
2022/05/17 12:59:49;;;;;;;2.92;1.45;;;11.10;99.90;;;;;;4997197;28;20030;-74
2022/05/17 13:02:25;;;;;;;1.67;0.93;;;11.10;99.90;;;;;;4993294;28;20058;-74
2022/05/17 13:04:53;;;;;;;2.60;1.00;;;11.10;99.90;;;;;;4990617;28;20030;-72
2022/05/17 13:07:23;;;;;;;2.92;1.23;;;11.10;99.90;;;;;;4984213;28;20027;-74
2022/05/17 13:10:00;;;;;;;3.63;1.30;;;11.10;99.90;;;;;;4984958;28;20022;-74
2022/05/17 13:12:34;;;;;;;2.92;1.00;;;11.10;99.90;;;;;;4986032;28;20494;-73
2022/05/17 13:15:07;;;;;;;3.15;1.20;;;11.10;99.90;;;;;;4985206;28;20068;-73
2022/05/17 13:17:38;;;;;;;2.42;1.35;;;11.10;99.90;;;;;;4985111;28;20026;-74
2022/05/17 13:20:13;;;;;;;2.78;1.40;;;11.00;99.90;;;;;;4985724;28;20018;-74
2022/05/17 13:22:46;;;;;;;8.35;1.55;;;11.10;99.90;;;;;;4984908;28;20074;-74
2022/05/17 13:25:18;;;;;;;2.55;1.20;;;11.00;99.90;;;;;;4980142;28;20542;-75
2022/05/17 13:27:54;;;;;;;10.18;1.98;;;11.00;99.90;;;;;;4977859;28;20019;-75
2022/05/17 13:30:37;;;;;;;;;;;11.00;99.90;;;;;;4977008;28;20121;-74
2022/05/17 13:33:11;;;;;;;3.15;1.00;;;11.00;99.90;;;;;;4977025;28;19997;-73
2022/05/17 13:35:41;;;;;;;1.30;1.08;;;11.00;99.90;;;;;;4976452;28;20030;-73
2022/05/17 13:38:18;;;;;;;2.92;1.25;;;10.90;99.90;;;;;;4975096;28;20544;-73
2022/05/17 13:40:53;;;;;;;4.82;1.50;;;10.90;99.90;;;;;;4976310;28;20379;-74
2022/05/17 13:43:33;;;;;;;3.78;0.90;;;10.90;99.90;;;;;;4976525;28;20023;-73
2022/05/17 13:46:12;;;;;;;2.63;0.90;;;10.90;99.90;;;;;;4976178;28;20109;-74